| time (UTC) | temp C | wind direction | speed KPH | gust KPH | rain 1hr cm | rain 24hr cm | rain mn cm | humidity % | barometer mb |
| 20260505122313 | 10 | 249 | 0.0 | 4.8 | 0.00 | 0.00 | 0.00 | 60 | 1011.2 |
| 20260505121811 | 10 | 250 | 0.0 | 3.2 | 0.00 | 0.00 | 0.00 | 60 | 1011.2 |
| 20260505120812 | 10 | 250 | 1.6 | 4.8 | 0.00 | 0.00 | 0.00 | 57 | 1011.0 |
| 20260505120309 | 10 | 250 | 0.0 | 4.8 | 0.00 | 0.00 | 0.00 | 57 | 1011.0 |
| 20260505115809 | 10 | 250 | 0.0 | 3.2 | 0.00 | 0.00 | 0.00 | 57 | 1011.0 |
| 20260505115309 | 10 | 250 | 1.6 | 6.4 | 0.00 | 0.00 | 0.00 | 58 | 1011.1 |
| 20260505114807 | 10 | 250 | 1.6 | 6.4 | 0.00 | 0.00 | 0.00 | 57 | 1011.0 |
| 20260505114303 | 11 | 250 | 0.0 | 4.8 | 0.00 | 0.00 | 0.00 | 57 | 1011.0 |
| 20260505113804 | 11 | 249 | 0.0 | 3.2 | 0.00 | 0.00 | 0.00 | 55 | 1011.0 |
| 20260505113304 | 11 | 250 | 1.6 | 9.7 | 0.00 | 0.00 | 0.00 | 54 | 1010.9 |
| 20260505112305 | 12 | 249 | 3.2 | 16.1 | 0.00 | 0.00 | 0.00 | 50 | 1010.9 |
| 20260505111304 | 12 | 250 | 4.8 | 14.5 | 0.00 | 0.00 | 0.00 | 50 | 1010.8 |
| 20260505110804 | 12 | 249 | 6.4 | 14.5 | 0.00 | 0.00 | 0.00 | 50 | 1010.8 |
| 20260505110304 | 12 | 250 | 6.4 | 14.5 | 0.00 | 0.00 | 0.00 | 50 | 1010.6 |
| 20260505101753 | 12 | 250 | 0.0 | 3.2 | 0.00 | 0.00 | 0.00 | 50 | 1010.5 |
| 20260505100753 | 13 | 250 | 0.0 | 3.2 | 0.00 | 0.00 | 0.00 | 50 | 1010.3 |
| 20260505100253 | 13 | 250 | 1.6 | 3.2 | 0.00 | 0.00 | 0.00 | 49 | 1010.3 |
| 20260505095753 | 13 | 250 | 1.6 | 6.4 | 0.00 | 0.00 | 0.00 | 48 | 1010.3 |
| 20260505095253 | 13 | 249 | 1.6 | 6.4 | 0.00 | 0.00 | 0.00 | 48 | 1010.2 |
| 20260505094754 | 13 | 250 | 1.6 | 4.8 | 0.00 | 0.00 | 0.00 | 48 | 1010.3 |
| 20260505094254 | 13 | 250 | 0.0 | 3.2 | 0.00 | 0.00 | 0.00 | 49 | 1010.3 |
| 20260505093253 | 13 | 250 | 0.0 | 6.4 | 0.00 | 0.00 | 0.00 | 48 | 1010.2 |
| 20260505092753 | 13 | 250 | 0.0 | 1.6 | 0.00 | 0.00 | 0.00 | 48 | 1010.2 |
| 20260505092254 | 13 | 250 | 3.2 | 9.7 | 0.00 | 0.00 | 0.00 | 48 | 1010.2 |
| 20260505091753 | 13 | 250 | 3.2 | 9.7 | 0.00 | 0.00 | 0.00 | 48 | 1010.1 |
| 20260505091254 | 13 | 250 | 1.6 | 9.7 | 0.00 | 0.00 | 0.00 | 50 | 1010.2 |
| 20260505090752 | 12 | 250 | 1.6 | 9.7 | 0.00 | 0.00 | 0.00 | 51 | 1010.2 |
| 20260505090253 | 12 | 249 | 1.6 | 3.2 | 0.00 | 0.00 | 0.00 | 53 | 1010.2 |
| 20260505085753 | 12 | 250 | 1.6 | 3.2 | 0.00 | 0.00 | 0.00 | 54 | 1010.2 |
| 20260505085253 | 12 | 250 | 0.0 | 4.8 | 0.00 | 0.00 | 0.00 | 54 | 1010.1 |
| 20260505084253 | 13 | 250 | 1.6 | 6.4 | 0.00 | 0.00 | 0.00 | 52 | 1010.0 |
| 20260505083753 | 13 | 250 | 1.6 | 6.4 | 0.00 | 0.00 | 0.00 | 52 | 1010.1 |
| 20260505083253 | 13 | 249 | 1.6 | 6.4 | 0.00 | 0.00 | 0.00 | 49 | 1010.0 |
| 20260505082753 | 13 | 249 | 1.6 | 6.4 | 0.00 | 0.00 | 0.00 | 48 | 1010.0 |
| 20260505082251 | 13 | 250 | 1.6 | 6.4 | 0.00 | 0.00 | 0.00 | 49 | 1010.0 |
| 20260505081752 | 13 | 250 | 1.6 | 8.0 | 0.00 | 0.00 | 0.00 | 48 | 1010.0 |
| 20260505081249 | 13 | 250 | 3.2 | 8.0 | 0.00 | 0.00 | 0.00 | 48 | 1009.9 |
| 20260505080750 | 13 | 250 | 1.6 | 8.0 | 0.00 | 0.00 | 0.00 | 48 | 1010.0 |
| 20260505080250 | 13 | 249 | 1.6 | 4.8 | 0.00 | 0.00 | 0.00 | 48 | 1010.0 |
| 20260505075748 | 14 | 250 | 1.6 | 3.2 | 0.00 | 0.00 | 0.00 | 47 | 1009.9 |
| 20260505075247 | 14 | 250 | 1.6 | 8.0 | 0.00 | 0.00 | 0.00 | 47 | 1009.9 |
| 20260505074246 | 14 | 250 | 3.2 | 11.3 | 0.00 | 0.00 | 0.00 | 47 | 1009.8 |
| 20260505073747 | 14 | 250 | 1.6 | 8.0 | 0.00 | 0.00 | 0.00 | 46 | 1009.8 |
| 20260505073247 | 14 | 249 | 1.6 | 8.0 | 0.00 | 0.00 | 0.00 | 46 | 1009.8 |
| 20260505072746 | 14 | 249 | 1.6 | 8.0 | 0.00 | 0.00 | 0.00 | 46 | 1009.8 |
| 20260505072244 | 15 | 249 | 3.2 | 14.5 | 0.00 | 0.00 | 0.00 | 46 | 1009.8 |
| 20260505071745 | 15 | 249 | 3.2 | 14.5 | 0.00 | 0.00 | 0.00 | 46 | 1009.8 |
| 20260505071245 | 15 | 250 | 3.2 | 9.7 | 0.00 | 0.00 | 0.00 | 46 | 1009.8 |
| 20260505070743 | 15 | 250 | 4.8 | 12.9 | 0.00 | 0.00 | 0.00 | 46 | 1009.7 |
| 20260505064740 | 15 | 250 | 3.2 | 11.3 | 0.00 | 0.00 | 0.00 | 46 | 1009.6 |
| 20260505064241 | 15 | 250 | 3.2 | 11.3 | 0.00 | 0.00 | 0.00 | 47 | 1009.4 |
| 20260505063739 | 15 | 249 | 3.2 | 8.0 | 0.00 | 0.00 | 0.00 | 46 | 1009.4 |
| 20260505063238 | 15 | 250 | 3.2 | 8.0 | 0.00 | 0.00 | 0.00 | 46 | 1009.4 |
| 20260505062738 | 15 | 250 | 3.2 | 9.7 | 0.00 | 0.00 | 0.00 | 46 | 1009.4 |
| 20260505062238 | 15 | 249 | 4.8 | 9.7 | 0.00 | 0.00 | 0.00 | 45 | 1009.3 |
| 20260505061735 | 16 | 250 | 4.8 | 9.7 | 0.00 | 0.00 | 0.00 | 44 | 1009.3 |
| 20260505061236 | 16 | 250 | 4.8 | 16.1 | 0.00 | 0.00 | 0.00 | 43 | 1009.3 |
| 20260505060735 | 16 | 249 | 6.4 | 16.1 | 0.00 | 0.00 | 0.00 | 43 | 1009.3 |
| 20260505060232 | 16 | 250 | 6.4 | 14.5 | 0.00 | 0.00 | 0.00 | 43 | 1009.2 |
| 20260505055730 | 16 | 249 | 4.8 | 14.5 | 0.00 | 0.00 | 0.00 | 45 | 1009.2 |
| 20260505055228 | 16 | 250 | 4.8 | 11.3 | 0.00 | 0.00 | 0.00 | 45 | 1009.1 |
| 20260505054726 | 16 | 250 | 4.8 | 9.7 | 0.00 | 0.00 | 0.00 | 45 | 1009.1 |
| 20260505054225 | 16 | 249 | 4.8 | 9.7 | 0.00 | 0.00 | 0.00 | 45 | 1009.1 |
| 20260505053225 | 16 | 250 | 3.2 | 6.4 | 0.00 | 0.00 | 0.00 | 45 | 1009.1 |
| 20260505052725 | 16 | 250 | 3.2 | 8.0 | 0.00 | 0.00 | 0.00 | 44 | 1009.1 |
| 20260505052225 | 16 | 249 | 3.2 | 8.0 | 0.00 | 0.00 | 0.00 | 44 | 1009.1 |
| 20260505051726 | 16 | 250 | 3.2 | 8.0 | 0.00 | 0.00 | 0.00 | 44 | 1009.1 |
| 20260505051225 | 17 | 250 | 3.2 | 16.1 | 0.00 | 0.00 | 0.00 | 43 | 1009.0 |
| 20260505050725 | 17 | 250 | 4.8 | 16.1 | 0.00 | 0.00 | 0.00 | 43 | 1009.0 |
| 20260505050224 | 17 | 249 | 6.4 | 17.7 | 0.00 | 0.00 | 0.00 | 42 | 1008.9 |
| 20260505041725 | 18 | 249 | 3.2 | 9.7 | 0.00 | 0.00 | 0.00 | 40 | 1008.6 |
| 20260505041225 | 18 | 250 | 4.8 | 11.3 | 0.00 | 0.00 | 0.00 | 39 | 1008.6 |
| 20260505040725 | 18 | 250 | 6.4 | 16.1 | 0.00 | 0.00 | 0.00 | 39 | 1008.5 |
| 20260505040224 | 19 | 249 | 6.4 | 16.1 | 0.00 | 0.00 | 0.00 | 38 | 1008.5 |
| 20260505035725 | 19 | 250 | 6.4 | 12.9 | 0.00 | 0.00 | 0.00 | 39 | 1008.5 |
| 20260505035225 | 19 | 249 | 6.4 | 11.3 | 0.00 | 0.00 | 0.00 | 39 | 1008.5 |
| 20260505033725 | 19 | 249 | 4.8 | 11.3 | 0.00 | 0.00 | 0.00 | 39 | 1008.1 |
| 20260505033225 | 20 | 249 | 6.4 | 11.3 | 0.00 | 0.00 | 0.00 | 38 | 1008.0 |
| 20260505032725 | 20 | 250 | 6.4 | 12.9 | 0.00 | 0.00 | 0.00 | 38 | 1008.0 |
| 20260505032223 | 20 | 250 | 4.8 | 9.7 | 0.00 | 0.00 | 0.00 | 38 | 1007.9 |
| 20260505031721 | 20 | 250 | 3.2 | 9.7 | 0.00 | 0.00 | 0.00 | 38 | 1007.9 |
| 20260505031219 | 20 | 250 | 3.2 | 9.7 | 0.00 | 0.00 | 0.00 | 38 | 1007.8 |
| 20260505030719 | 20 | 249 | 4.8 | 9.7 | 0.00 | 0.00 | 0.00 | 38 | 1007.7 |
| 20260505025715 | 20 | 249 | 4.8 | 9.7 | 0.00 | 0.00 | 0.00 | 38 | 1007.6 |
| 20260505024716 | 20 | 250 | 4.8 | 14.5 | 0.00 | 0.00 | 0.00 | 37 | 1007.5 |
| 20260505023715 | 21 | 249 | 6.4 | 20.9 | 0.00 | 0.00 | 0.00 | 36 | 1007.3 |
| 20260505023215 | 21 | 250 | 6.4 | 20.9 | 0.00 | 0.00 | 0.00 | 35 | 1007.2 |
| 20260505022713 | 21 | 250 | 3.2 | 11.3 | 0.00 | 0.00 | 0.00 | 36 | 1007.2 |
| 20260505021210 | 22 | 249 | 3.2 | 12.9 | 0.00 | 0.00 | 0.00 | 34 | 1007.0 |
| 20260505020709 | 23 | 249 | 3.2 | 8.0 | 0.00 | 0.00 | 0.00 | 33 | 1007.0 |
| 20260505020207 | 23 | 250 | 3.2 | 16.1 | 0.00 | 0.00 | 0.00 | 32 | 1007.0 |
| 20260505015707 | 23 | 249 | 3.2 | 16.1 | 0.00 | 0.00 | 0.00 | 31 | 1006.8 |
| 20260505015207 | 23 | 249 | 4.8 | 12.9 | 0.00 | 0.00 | 0.00 | 32 | 1006.8 |
| 20260505014707 | 23 | 249 | 4.8 | 14.5 | 0.00 | 0.00 | 0.00 | 31 | 1006.7 |
| 20260505014205 | 23 | 249 | 6.4 | 22.5 | 0.00 | 0.00 | 0.00 | 31 | 1006.7 |
| 20260505013704 | 23 | 249 | 6.4 | 22.5 | 0.00 | 0.00 | 0.00 | 31 | 1006.7 |
| 20260505013205 | 23 | 249 | 6.4 | 19.3 | 0.00 | 0.00 | 0.00 | 31 | 1006.7 |
| 20260505012703 | 23 | 249 | 4.8 | 16.1 | 0.00 | 0.00 | 0.00 | 32 | 1006.7 |
| 20260505012201 | 23 | 250 | 4.8 | 16.1 | 0.00 | 0.00 | 0.00 | 33 | 1006.7 |
| 20260505011701 | 23 | 250 | 4.8 | 11.3 | 0.00 | 0.00 | 0.00 | 32 | 1006.7 |
| 20260505011201 | 23 | 250 | 4.8 | 16.1 | 0.00 | 0.00 | 0.00 | 32 | 1006.8 |
| 20260505010700 | 23 | 250 | 4.8 | 19.3 | 0.00 | 0.00 | 0.00 | 32 | 1006.8 |
| 20260505010159 | 23 | 249 | 4.8 | 19.3 | 0.00 | 0.00 | 0.00 | 31 | 1006.7 |
| 20260505005659 | 23 | 249 | 6.4 | 17.7 | 0.00 | 0.00 | 0.00 | 32 | 1006.7 |
| 20260505004659 | 24 | 250 | 6.4 | 17.7 | 0.00 | 0.00 | 0.00 | 31 | 1006.7 |
| 20260505004200 | 24 | 250 | 6.4 | 17.7 | 0.00 | 0.00 | 0.00 | 31 | 1006.6 |
| 20260505003700 | 24 | 249 | 8.0 | 22.5 | 0.00 | 0.00 | 0.00 | 32 | 1006.7 |
| 20260505003200 | 24 | 250 | 9.7 | 22.5 | 0.00 | 0.00 | 0.00 | 29 | 1006.7 |
| 20260505002659 | 24 | 250 | 8.0 | 16.1 | 0.00 | 0.00 | 0.00 | 30 | 1006.8 |
| 20260505002159 | 24 | 250 | 6.4 | 14.5 | 0.00 | 0.00 | 0.00 | 30 | 1006.8 |
| 20260505001659 | 24 | 250 | 4.8 | 22.5 | 0.00 | 0.00 | 0.00 | 30 | 1006.8 |
| 20260505001159 | 24 | 250 | 6.4 | 16.1 | 0.00 | 0.00 | 0.00 | 32 | 1007.0 |
| 20260505000658 | 25 | 250 | 6.4 | 19.3 | 0.00 | 0.00 | 0.00 | 33 | 1007.0 |
| 20260504235659 | 25 | 250 | 3.2 | 14.5 | 0.00 | 0.00 | 0.00 | 33 | 1006.8 |
| 20260504235159 | 25 | 250 | 4.8 | 16.1 | 0.00 | 0.00 | 0.00 | 33 | 1006.8 |
| 20260504234659 | 25 | 250 | 4.8 | 16.1 | 0.00 | 0.00 | 0.00 | 30 | 1007.0 |
| 20260504234159 | 25 | 250 | 3.2 | 9.7 | 0.00 | 0.00 | 0.00 | 33 | 1006.8 |
| 20260504233657 | 25 | 250 | 4.8 | 12.9 | 0.00 | 0.00 | 0.00 | 31 | 1007.0 |
| 20260504233157 | 25 | 250 | 4.8 | 12.9 | 0.00 | 0.00 | 0.00 | 31 | 1007.0 |
| 20260504232656 | 25 | 250 | 3.2 | 9.7 | 0.00 | 0.00 | 0.00 | 32 | 1007.0 |
| 20260504232157 | 25 | 250 | 1.6 | 9.7 | 0.00 | 0.00 | 0.00 | 33 | 1007.1 |
| 20260504231657 | 25 | 250 | 4.8 | 11.3 | 0.00 | 0.00 | 0.00 | 42 | 1007.1 |
| 20260504231155 | 24 | 249 | 6.4 | 12.9 | 0.00 | 0.00 | 0.00 | 37 | 1007.1 |
| 20260504230654 | 24 | 249 | 8.0 | 14.5 | 0.00 | 0.00 | 0.00 | 36 | 1007.1 |
| 20260504230153 | 23 | 250 | 8.0 | 19.3 | 0.00 | 0.00 | 0.00 | 40 | 1007.2 |
| 20260504225652 | 23 | 249 | 9.7 | 19.3 | 0.00 | 0.00 | 0.00 | 39 | 1007.2 |
| 20260504225153 | 23 | 249 | 9.7 | 19.3 | 0.00 | 0.00 | 0.00 | 39 | 1007.2 |
| 20260504224653 | 23 | 250 | 6.4 | 19.3 | 0.00 | 0.00 | 0.00 | 37 | 1007.3 |
| 20260504224151 | 24 | 249 | 8.0 | 16.1 | 0.00 | 0.00 | 0.00 | 39 | 1007.3 |
| 20260504223649 | 23 | 250 | 6.4 | 16.1 | 0.00 | 0.00 | 0.00 | 39 | 1007.4 |
| 20260504223149 | 23 | 249 | 4.8 | 16.1 | 0.00 | 0.00 | 0.00 | 42 | 1007.5 |
| 20260504222648 | 23 | 249 | 6.4 | 14.5 | 0.00 | 0.00 | 0.00 | 39 | 1007.6 |
| 20260504221147 | 23 | 250 | 8.0 | 19.3 | 0.00 | 0.00 | 0.00 | 46 | 1007.6 |
| 20260504220645 | 23 | 250 | 8.0 | 17.7 | 0.00 | 0.00 | 0.00 | 41 | 1007.7 |
| 20260504220145 | 23 | 250 | 8.0 | 17.7 | 0.00 | 0.00 | 0.00 | 42 | 1007.8 |
| 20260504215143 | 23 | 250 | 6.4 | 19.3 | 0.00 | 0.00 | 0.00 | 44 | 1007.8 |
| 20260504214643 | 23 | 250 | 6.4 | 16.1 | 0.00 | 0.00 | 0.00 | 43 | 1007.9 |
| 20260504214143 | 23 | 249 | 6.4 | 16.1 | 0.00 | 0.00 | 0.00 | 40 | 1008.0 |
| 20260504213643 | 23 | 250 | 6.4 | 14.5 | 0.00 | 0.00 | 0.00 | 43 | 1007.9 |
| 20260504212642 | 23 | 250 | 8.0 | 14.5 | 0.00 | 0.00 | 0.00 | 42 | 1008.0 |
| 20260504212141 | 23 | 249 | 9.7 | 19.3 | 0.00 | 0.00 | 0.00 | 43 | 1008.0 |
| 20260504211641 | 22 | 250 | 8.0 | 19.3 | 0.00 | 0.00 | 0.00 | 43 | 1008.0 |
| 20260504211140 | 23 | 249 | 4.8 | 17.7 | 0.00 | 0.00 | 0.00 | 49 | 1008.1 |
| 20260504210639 | 22 | 250 | 4.8 | 17.7 | 0.00 | 0.00 | 0.00 | 41 | 1008.3 |
| 20260504210137 | 22 | 250 | 4.8 | 17.7 | 0.00 | 0.00 | 0.00 | 46 | 1008.3 |
| 20260504205135 | 22 | 250 | 4.8 | 11.3 | 0.00 | 0.00 | 0.00 | 44 | 1008.5 |
| 20260504204135 | 22 | 250 | 4.8 | 14.5 | 0.00 | 0.00 | 0.00 | 45 | 1008.4 |
| 20260504203135 | 22 | 249 | 6.4 | 14.5 | 0.00 | 0.00 | 0.00 | 42 | 1008.5 |
| 20260504202637 | 22 | 250 | 4.8 | 12.9 | 0.00 | 0.00 | 0.00 | 43 | 1008.5 |
| 20260504202136 | 21 | 250 | 6.4 | 16.1 | 0.00 | 0.00 | 0.00 | 43 | 1008.6 |
| 20260504201636 | 21 | 249 | 6.4 | 16.1 | 0.00 | 0.00 | 0.00 | 43 | 1008.6 |
| 20260504201136 | 21 | 249 | 4.8 | 11.3 | 0.00 | 0.00 | 0.00 | 45 | 1008.6 |
| 20260504200635 | 22 | 250 | 3.2 | 11.3 | 0.00 | 0.00 | 0.00 | 42 | 1008.6 |
| 20260504200131 | 21 | 250 | 3.2 | 8.0 | 0.00 | 0.00 | 0.00 | 45 | 1008.7 |
| 20260504195631 | 21 | 250 | 3.2 | 9.7 | 0.00 | 0.00 | 0.00 | 44 | 1008.8 |
| 20260504195129 | 21 | 249 | 4.8 | 11.3 | 0.00 | 0.00 | 0.00 | 44 | 1008.8 |
| 20260504194629 | 21 | 249 | 4.8 | 12.9 | 0.00 | 0.00 | 0.00 | 42 | 1008.9 |
| 20260504194127 | 21 | 250 | 8.0 | 14.5 | 0.00 | 0.00 | 0.00 | 41 | 1008.9 |
| 20260504193627 | 21 | 250 | 8.0 | 20.9 | 0.00 | 0.00 | 0.00 | 43 | 1008.8 |
| 20260504193127 | 21 | 250 | 6.4 | 20.9 | 0.00 | 0.00 | 0.00 | 45 | 1008.9 |
| 20260504192626 | 21 | 250 | 6.4 | 11.3 | 0.00 | 0.00 | 0.00 | 40 | 1008.9 |
| 20260504192127 | 21 | 249 | 6.4 | 12.9 | 0.00 | 0.00 | 0.00 | 45 | 1008.9 |
| 20260504191627 | 21 | 249 | 4.8 | 12.9 | 0.00 | 0.00 | 0.00 | 46 | 1008.9 |
| 20260504191126 | 21 | 249 | 6.4 | 11.3 | 0.00 | 0.00 | 0.00 | 43 | 1009.0 |
| 20260504190627 | 21 | 249 | 6.4 | 11.3 | 0.00 | 0.00 | 0.00 | 46 | 1009.0 |
| 20260504185627 | 20 | 250 | 6.4 | 12.9 | 0.00 | 0.00 | 0.00 | 43 | 1009.0 |
| 20260504184627 | 20 | 250 | 4.8 | 12.9 | 0.00 | 0.00 | 0.00 | 41 | 1009.0 |
| 20260504184126 | 20 | 250 | 4.8 | 9.7 | 0.00 | 0.00 | 0.00 | 43 | 1009.0 |
| 20260504183627 | 20 | 250 | 4.8 | 12.9 | 0.00 | 0.00 | 0.00 | 42 | 1009.1 |
| 20260504183127 | 20 | 249 | 4.8 | 12.9 | 0.00 | 0.00 | 0.00 | 40 | 1009.0 |
| 20260504182126 | 20 | 249 | 4.8 | 16.1 | 0.00 | 0.00 | 0.00 | 43 | 1009.1 |
| 20260504181627 | 20 | 249 | 4.8 | 16.1 | 0.00 | 0.00 | 0.00 | 40 | 1009.2 |
| 20260504181127 | 20 | 249 | 4.8 | 12.9 | 0.00 | 0.00 | 0.00 | 42 | 1009.1 |
| 20260504180626 | 20 | 249 | 4.8 | 11.3 | 0.00 | 0.00 | 0.00 | 45 | 1009.2 |
| 20260504175626 | 20 | 250 | 4.8 | 11.3 | 0.00 | 0.00 | 0.00 | 45 | 1009.2 |
| 20260504175127 | 20 | 249 | 1.6 | 11.3 | 0.00 | 0.00 | 0.00 | 43 | 1009.1 |
| 20260504174625 | 20 | 249 | 0.0 | 8.0 | 0.00 | 0.00 | 0.00 | 45 | 1009.2 |
| 20260504174122 | 20 | 250 | 1.6 | 9.7 | 0.00 | 0.00 | 0.00 | 42 | 1009.2 |
| 20260504173621 | 19 | 250 | 1.6 | 9.7 | 0.00 | 0.00 | 0.00 | 45 | 1009.2 |
| 20260504172118 | 19 | 249 | 1.6 | 8.0 | 0.00 | 0.00 | 0.00 | 46 | 1009.2 |
| 20260504171617 | 19 | 249 | 1.6 | 8.0 | 0.00 | 0.00 | 0.00 | 42 | 1009.2 |
| 20260504171116 | 19 | 249 | 0.0 | 4.8 | 0.00 | 0.00 | 0.00 | 41 | 1009.2 |
| 20260504170616 | 19 | 250 | 0.0 | 1.6 | 0.00 | 0.00 | 0.00 | 43 | 1009.2 |
| 20260504170116 | 19 | 249 | 0.0 | 3.2 | 0.00 | 0.00 | 0.00 | 42 | 1009.3 |
| 20260504151100 | 14 | 250 | 0.0 | 0.0 | 0.00 | 0.00 | 0.00 | 59 | 1009.6 |
| 20260504150600 | 13 | 249 | 0.0 | 0.0 | 0.00 | 0.00 | 0.00 | 59 | 1009.6 |
| 20260504141052 | 11 | 250 | 0.0 | 0.0 | 0.00 | 0.00 | 0.00 | 69 | 1009.6 |
| 20260504140552 | 10 | 249 | 0.0 | 0.0 | 0.00 | 0.00 | 0.00 | 68 | 1009.7 |